Portada
METAR-TAF:

METAR-TAF

Aeroports :

Rurrenabaque, Bolívia

latitud: 14-28S, longitud: 067-34W, altitud: 204 m

Observació

L'informe es va fer fa 1 hora i 8 minuts, a les 17:00 UTC
Vent 6 kt del Sud
Temperatura 23°C
Humitat 69%
Pressió 1021 hPa
Visibilitat 10 km o més
Escasses núvols a una alçada de 2000 ft
Cel ennuvolat a una alçada de 7000 ft

METAR: SLRQ 171700Z 17006KT 9999 FEW020 BKN070 23/17 Q1021

Hora: 14:08 (18:08 UTC)


TAF: manca

Observacions i pronòstics meteorològics de més de 4000 aeroports (METAR i TAF).

Les estacions disponibles són els punts grocs i vermells al mapa.

Posi el ratolí al punt desitjat per veure el nom de l'estació.

Feu clic per veure les observacions i els pronòstics meteorològics.

Per canviar el mapa: feu clic els botons verds amb una creu de color negre per apropar; al botó verd amb un guió per allunyar la imatge; o en les fletxes verdes per a mapes adjacents.


METAR-TAF: